createdAt,value
2022-11-29T00:01:20.963Z,28.45
2022-11-29T00:03:47.623Z,28.13
2022-11-29T00:06:19.599Z,27.98
2022-11-29T00:08:46.802Z,26.13
2022-11-29T00:11:37.218Z,26.67
2022-11-29T00:14:03.955Z,26.00
2022-11-29T00:16:30.681Z,28.42
2022-11-29T00:18:57.224Z,26.40
2022-11-29T00:21:23.748Z,25.80
2022-11-29T00:23:50.287Z,26.17
2022-11-29T00:26:16.855Z,24.45
2022-11-29T00:28:43.439Z,25.70
2022-11-29T00:31:19.649Z,26.08
2022-11-29T00:33:46.631Z,27.05
2022-11-29T00:36:14.057Z,26.75
2022-11-29T00:38:41.300Z,24.35
2022-11-29T00:41:09.169Z,24.88
2022-11-29T00:43:36.154Z,26.27
2022-11-29T00:46:03.884Z,25.83
2022-11-29T00:48:31.284Z,26.42
2022-11-29T00:50:58.164Z,26.55
2022-11-29T00:53:25.060Z,25.48
2022-11-29T00:55:52.919Z,26.50
2022-11-29T00:58:20.215Z,27.60
2022-11-29T01:00:47.596Z,27.23
2022-11-29T01:03:15.104Z,28.60
2022-11-29T01:05:42.931Z,29.00
2022-11-29T01:08:10.830Z,28.80
2022-11-29T01:10:37.352Z,29.08
2022-11-29T01:13:03.898Z,27.25
2022-11-29T01:15:30.455Z,28.45
2022-11-29T01:17:56.926Z,28.80
2022-11-29T01:20:23.447Z,29.05
2022-11-29T01:22:50.063Z,27.73
2022-11-29T01:25:16.839Z,27.35
2022-11-29T01:27:43.310Z,27.17
2022-11-29T01:30:10.341Z,25.27
2022-11-29T01:32:37.104Z,24.42
2022-11-29T01:35:04.824Z,26.63
2022-11-29T01:37:32.023Z,25.35
2022-11-29T01:39:58.575Z,26.52
2022-11-29T01:42:25.260Z,25.60
2022-11-29T01:45:25.526Z,28.35
2022-11-29T01:47:56.787Z,25.25
2022-11-29T01:50:23.773Z,24.85
2022-11-29T01:52:50.630Z,23.25
2022-11-29T01:55:18.286Z,25.13
2022-11-29T01:57:45.187Z,25.35
2022-11-29T02:00:15.026Z,24.63
2022-11-29T02:02:50.786Z,24.60
2022-11-29T02:05:19.362Z,24.83
2022-11-29T02:07:51.040Z,25.70
2022-11-29T02:10:18.059Z,25.45
2022-11-29T02:13:33.854Z,25.65
2022-11-29T02:16:13.042Z,24.83
2022-11-29T02:18:54.051Z,24.88
2022-11-29T02:21:58.968Z,26.50
2022-11-29T02:25:00.954Z,27.55
2022-11-29T02:27:43.027Z,26.23
2022-11-29T02:32:58.509Z,24.90
2022-11-29T02:35:52.362Z,24.70
2022-11-29T02:38:25.698Z,25.00
2022-11-29T02:41:21.835Z,25.90
2022-11-29T02:44:07.089Z,25.95
2022-11-29T02:47:14.780Z,25.38
2022-11-29T02:50:08.838Z,25.33
2022-11-29T02:52:47.811Z,26.52
2022-11-29T02:55:47.052Z,25.85
2022-11-29T02:58:47.511Z,23.48
2022-11-29T03:01:24.025Z,24.33
2022-11-29T03:04:14.070Z,25.20
2022-11-29T03:07:01.634Z,26.15
2022-11-29T03:09:54.102Z,25.95
2022-11-29T03:12:49.841Z,24.80
2022-11-29T03:15:28.704Z,24.23
2022-11-29T03:18:03.481Z,25.38
2022-11-29T03:20:51.664Z,24.60
2022-11-29T03:23:34.266Z,25.52
2022-11-29T03:26:24.408Z,24.05
2022-11-29T03:29:07.290Z,23.50
2022-11-29T03:31:49.362Z,24.40
2022-11-29T03:36:51.301Z,23.08
2022-11-29T03:39:24.581Z,23.73
2022-11-29T03:41:58.551Z,22.33
2022-11-29T03:44:28.361Z,23.63
2022-11-29T03:47:03.375Z,24.27
2022-11-29T03:49:44.969Z,24.27
2022-11-29T03:52:35.600Z,23.75
2022-11-29T03:55:11.024Z,24.00
2022-11-29T03:57:53.317Z,23.38
2022-11-29T04:00:20.523Z,23.15
2022-11-29T04:03:17.083Z,24.85
2022-11-29T04:06:02.268Z,24.55
2022-11-29T04:08:59.864Z,24.60
2022-11-29T04:11:58.674Z,23.98
2022-11-29T04:14:47.438Z,24.58
2022-11-29T04:17:41.343Z,23.73
2022-11-29T04:20:26.160Z,24.08
2022-11-29T04:23:37.549Z,24.88
2022-11-29T04:26:30.902Z,23.67
2022-11-29T04:29:33.950Z,24.67
2022-11-29T04:32:21.321Z,23.83
2022-11-29T04:35:03.464Z,23.42
2022-11-29T04:37:56.271Z,22.92
2022-11-29T04:41:00.394Z,22.65
2022-11-29T04:44:06.198Z,22.52
2022-11-29T04:46:59.929Z,22.65
2022-11-29T04:49:29.239Z,22.58
2022-11-29T04:52:41.947Z,22.40
2022-11-29T04:55:35.396Z,22.60
2022-11-29T04:58:28.439Z,22.50
2022-11-29T05:01:14.946Z,21.95
2022-11-29T05:04:00.237Z,23.30
2022-11-29T05:06:42.571Z,24.63
2022-11-29T05:09:35.805Z,24.50
2022-11-29T05:12:18.733Z,25.67
2022-11-29T05:15:17.493Z,23.45
2022-11-29T05:18:19.511Z,24.20
2022-11-29T05:21:24.183Z,24.63
2022-11-29T05:24:06.802Z,23.98
2022-11-29T05:26:50.249Z,25.40
2022-11-29T05:29:26.067Z,25.38
2022-11-29T05:32:28.540Z,25.35
2022-11-29T05:35:13.675Z,25.33
2022-11-29T05:37:56.773Z,26.33
2022-11-29T05:40:41.160Z,27.08
2022-11-29T05:43:46.609Z,27.90
2022-11-29T05:46:29.049Z,27.15
2022-11-29T05:49:13.950Z,28.63
2022-11-29T05:51:50.289Z,27.08
2022-11-29T05:54:29.404Z,26.67
2022-11-29T05:57:23.057Z,26.92
2022-11-29T05:59:51.182Z,26.38
2022-11-29T06:02:26.557Z,25.60
2022-11-29T06:05:03.581Z,26.65
2022-11-29T06:07:40.800Z,26.63
2022-11-29T06:10:17.626Z,26.30
2022-11-29T06:13:36.485Z,26.30
2022-11-29T06:16:24.900Z,26.00
2022-11-29T06:18:57.356Z,26.92
2022-11-29T06:22:05.727Z,26.45
2022-11-29T06:24:51.762Z,27.42
2022-11-29T06:27:32.289Z,27.48
2022-11-29T06:30:15.806Z,26.80
2022-11-29T06:33:01.106Z,26.73
2022-11-29T06:35:47.095Z,26.63
2022-11-29T06:38:23.463Z,26.38
2022-11-29T06:40:51.019Z,27.23
2022-11-29T06:43:17.966Z,26.63
2022-11-29T06:45:50.135Z,27.08
2022-11-29T06:48:25.590Z,26.00
2022-11-29T06:51:00.155Z,25.63
2022-11-29T06:53:47.966Z,26.40
2022-11-29T06:56:33.607Z,25.98
2022-11-29T06:59:17.823Z,26.17
2022-11-29T07:02:22.456Z,26.10
2022-11-29T07:05:19.144Z,27.15
2022-11-29T07:07:48.327Z,26.67
2022-11-29T07:10:18.629Z,27.73
2022-11-29T07:12:47.674Z,26.58
2022-11-29T07:15:16.946Z,27.77
2022-11-29T07:18:09.409Z,26.67
2022-11-29T07:20:45.598Z,26.77
2022-11-29T07:23:36.010Z,28.45
2022-11-29T07:26:15.244Z,27.58
2022-11-29T07:29:26.218Z,26.95
2022-11-29T07:32:03.442Z,26.25
2022-11-29T07:34:43.625Z,27.73
2022-11-29T07:37:28.889Z,27.92
2022-11-29T07:40:05.764Z,28.48
2022-11-29T07:43:08.751Z,28.42
2022-11-29T07:45:38.319Z,29.15
2022-11-29T07:48:05.546Z,29.13
2022-11-29T07:50:32.074Z,30.70
2022-11-29T07:52:59.930Z,31.45
2022-11-29T07:55:27.526Z,33.05
2022-11-29T07:57:54.122Z,32.95
2022-11-29T08:00:21.707Z,32.10
2022-11-29T08:02:49.721Z,30.45
2022-11-29T08:05:16.503Z,30.55
2022-11-29T08:07:43.576Z,29.98
2022-11-29T08:10:13.918Z,29.45
2022-11-29T08:12:45.142Z,28.33
2022-11-29T08:15:12.430Z,31.05
2022-11-29T08:17:39.444Z,29.63
2022-11-29T08:20:07.298Z,31.15
2022-11-29T08:22:33.807Z,30.35
2022-11-29T08:25:00.407Z,30.90
2022-11-29T08:27:27.549Z,31.90
2022-11-29T08:29:54.086Z,32.47
2022-11-29T08:32:20.647Z,31.13
2022-11-29T08:34:47.401Z,31.77
2022-11-29T08:37:14.843Z,31.52
2022-11-29T08:39:41.493Z,33.08
2022-11-29T08:42:08.081Z,32.58
2022-11-29T08:44:34.691Z,34.15
2022-11-29T08:47:19.689Z,34.13
2022-11-29T08:50:04.098Z,35.75
2022-11-29T08:52:55.457Z,33.90
2022-11-29T08:55:24.875Z,35.33
2022-11-29T08:57:51.959Z,37.45
2022-11-29T09:00:21.123Z,38.47
2022-11-29T09:02:48.245Z,35.75
2022-11-29T09:05:15.791Z,35.85
2022-11-29T09:07:42.905Z,36.85
2022-11-29T09:10:11.240Z,38.53
2022-11-29T09:12:39.314Z,38.30
2022-11-29T09:15:09.006Z,36.90
2022-11-29T09:17:35.500Z,41.08
2022-11-29T09:20:02.187Z,39.72
2022-11-29T09:22:28.711Z,38.65
2022-11-29T09:24:55.234Z,38.75
2022-11-29T09:27:21.738Z,41.45
2022-11-29T09:29:48.266Z,40.13
2022-11-29T09:32:14.734Z,38.78
2022-11-29T09:34:42.237Z,39.00
2022-11-29T09:37:08.967Z,35.95
2022-11-29T09:39:35.428Z,39.42
2022-11-29T09:42:21.302Z,38.50
2022-11-29T09:44:59.266Z,38.38
2022-11-29T09:47:33.051Z,38.53
2022-11-29T09:50:27.169Z,37.58
2022-11-29T09:52:59.505Z,36.45
2022-11-29T09:55:59.412Z,37.92
2022-11-29T09:58:30.628Z,37.65
2022-11-29T10:01:02.478Z,38.80
2022-11-29T10:06:17.553Z,38.92
2022-11-29T10:08:49.927Z,40.33
2022-11-29T10:11:24.114Z,35.15
2022-11-29T10:14:13.764Z,35.67
2022-11-29T10:16:59.430Z,33.20
2022-11-29T10:19:38.219Z,32.67
2022-11-29T10:22:27.363Z,32.00
2022-11-29T10:24:59.057Z,29.35
2022-11-29T10:27:29.411Z,28.13
2022-11-29T10:29:58.057Z,28.55
2022-11-29T10:32:25.721Z,30.63
2022-11-29T10:34:52.254Z,29.00
2022-11-29T10:37:23.640Z,31.83
2022-11-29T10:39:58.664Z,30.38
2022-11-29T10:42:46.972Z,30.17
2022-11-29T10:45:20.745Z,31.75
2022-11-29T10:47:49.415Z,33.53
2022-11-29T10:50:31.244Z,33.88
2022-11-29T10:53:09.484Z,32.20
2022-11-29T10:55:45.669Z,37.05
2022-11-29T10:58:16.427Z,33.80
2022-11-29T11:01:07.072Z,35.17
2022-11-29T11:03:53.552Z,33.63
2022-11-29T11:06:26.722Z,35.97
2022-11-29T11:08:55.732Z,35.30
2022-11-29T11:11:25.022Z,37.95
2022-11-29T11:14:03.656Z,37.70
2022-11-29T11:16:35.580Z,41.55
2022-11-29T11:19:30.574Z,39.88
2022-11-29T11:22:01.856Z,38.17
2022-11-29T11:24:32.309Z,37.38
2022-11-29T11:27:00.183Z,38.35
2022-11-29T11:29:51.876Z,40.58
2022-11-29T11:32:20.001Z,37.95
2022-11-29T11:35:00.736Z,37.08
2022-11-29T11:37:32.269Z,35.22
2022-11-29T11:40:17.932Z,35.35
2022-11-29T11:42:45.004Z,34.17
2022-11-29T11:45:11.420Z,33.38
2022-11-29T11:47:47.826Z,34.58
2022-11-29T11:50:40.264Z,35.60
2022-11-29T11:53:18.161Z,35.13
2022-11-29T11:56:13.371Z,36.60
2022-11-29T11:58:51.709Z,39.13
2022-11-29T12:01:30.815Z,38.50
2022-11-29T12:04:02.869Z,36.72
2022-11-29T12:06:55.719Z,38.38
2022-11-29T12:09:42.022Z,37.78
2022-11-29T12:12:29.850Z,39.17
2022-11-29T12:15:07.046Z,38.75
2022-11-29T12:17:54.881Z,38.35
2022-11-29T12:20:28.225Z,36.22
2022-11-29T12:23:12.659Z,37.30
2022-11-29T12:26:02.897Z,38.08
2022-11-29T12:28:35.038Z,36.10
2022-11-29T12:31:13.927Z,36.50
2022-11-29T12:33:57.823Z,36.97
2022-11-29T12:36:49.767Z,36.45
2022-11-29T12:39:30.436Z,36.40
2022-11-29T12:42:15.919Z,36.38
2022-11-29T12:44:50.826Z,37.83
2022-11-29T12:47:55.924Z,38.25
2022-11-29T12:51:01.702Z,39.28
2022-11-29T12:53:59.027Z,40.22
2022-11-29T12:56:37.048Z,37.92
2022-11-29T12:59:21.807Z,36.22
2022-11-29T13:01:51.260Z,37.45
2022-11-29T13:04:29.645Z,37.13
2022-11-29T13:07:21.144Z,36.10
2022-11-29T13:09:55.216Z,36.50
2022-11-29T13:12:41.586Z,35.88
2022-11-29T13:15:41.661Z,37.95
2022-11-29T13:18:40.575Z,38.47
2022-11-29T13:21:32.815Z,38.03
2022-11-29T13:26:41.867Z,36.20
2022-11-29T13:29:15.479Z,36.42
2022-11-29T13:31:42.896Z,36.70
2022-11-29T13:34:13.802Z,34.25
2022-11-29T13:36:42.986Z,33.92
2022-11-29T13:39:15.384Z,34.45
2022-11-29T13:41:50.758Z,34.72
2022-11-29T13:44:32.269Z,34.05
2022-11-29T13:47:10.779Z,34.20
2022-11-29T13:50:03.598Z,32.30
2022-11-29T13:52:44.677Z,34.90
2022-11-29T13:55:23.367Z,34.13
2022-11-29T13:58:15.569Z,34.22
2022-11-29T14:00:42.593Z,33.83
2022-11-29T14:03:21.366Z,34.20
2022-11-29T14:05:50.632Z,33.97
2022-11-29T14:08:55.181Z,33.60
2022-11-29T14:11:36.118Z,32.50
2022-11-29T14:14:08.533Z,33.47
2022-11-29T14:16:44.498Z,33.40
2022-11-29T14:19:33.826Z,35.17
2022-11-29T14:22:06.648Z,35.50
2022-11-29T14:24:33.308Z,34.85
2022-11-29T14:27:14.565Z,35.10
2022-11-29T14:29:49.984Z,34.92
2022-11-29T14:32:45.919Z,34.90
2022-11-29T14:35:13.016Z,35.22
2022-11-29T14:37:56.851Z,35.08
2022-11-29T14:40:23.255Z,32.85
2022-11-29T14:42:50.968Z,34.58
2022-11-29T14:45:30.831Z,33.17
2022-11-29T14:47:58.071Z,34.00
2022-11-29T14:50:37.250Z,33.42
2022-11-29T14:53:06.846Z,33.90
2022-11-29T14:55:38.520Z,34.33
2022-11-29T14:58:16.344Z,32.95
2022-11-29T15:00:48.870Z,33.72
2022-11-29T15:03:25.041Z,31.50
2022-11-29T15:06:09.810Z,31.85
2022-11-29T15:08:57.295Z,32.97
2022-11-29T15:11:57.409Z,32.75
2022-11-29T15:14:52.742Z,32.78
2022-11-29T15:17:38.602Z,32.90
2022-11-29T15:20:42.427Z,34.67
2022-11-29T15:23:15.156Z,34.60
2022-11-29T15:25:52.334Z,33.83
2022-11-29T15:28:24.982Z,35.50
2022-11-29T15:31:03.838Z,33.80
2022-11-29T15:33:30.886Z,33.88
2022-11-29T15:36:05.501Z,32.83
2022-11-29T15:38:42.769Z,33.90
2022-11-29T15:41:29.514Z,35.13
2022-11-29T15:44:04.548Z,33.40
2022-11-29T15:46:33.673Z,35.28
2022-11-29T15:49:26.468Z,34.92
2022-11-29T15:51:58.088Z,34.17
2022-11-29T15:54:35.799Z,35.90
2022-11-29T15:57:24.587Z,33.83
2022-11-29T15:59:58.966Z,34.05
2022-11-29T16:02:32.048Z,33.80
2022-11-29T16:05:03.291Z,33.25
2022-11-29T16:07:32.592Z,34.28
2022-11-29T16:10:10.926Z,34.50
2022-11-29T16:12:53.771Z,36.92
2022-11-29T16:15:29.737Z,36.92
2022-11-29T16:17:56.345Z,37.05
2022-11-29T16:20:25.024Z,36.03
2022-11-29T16:23:14.091Z,36.03
2022-11-29T16:26:01.879Z,34.47
2022-11-29T16:28:36.472Z,35.53
2022-11-29T16:31:04.862Z,33.22
2022-11-29T16:33:32.085Z,31.77
2022-11-29T16:36:22.910Z,31.67
2022-11-29T16:39:07.832Z,31.77
2022-11-29T16:41:38.610Z,31.75
2022-11-29T16:44:15.674Z,32.80
2022-11-29T16:46:42.256Z,32.78
2022-11-29T16:49:33.302Z,32.95
2022-11-29T16:52:00.553Z,31.80
2022-11-29T16:54:33.943Z,35.00
2022-11-29T16:57:05.145Z,37.08
2022-11-29T16:59:32.497Z,39.97
2022-11-29T17:01:59.363Z,41.75
2022-11-29T17:04:26.406Z,41.20
2022-11-29T17:06:54.702Z,36.15
2022-11-29T17:09:26.764Z,38.08
2022-11-29T17:11:54.437Z,37.60
2022-11-29T17:14:21.149Z,36.60
2022-11-29T17:16:49.407Z,36.47
2022-11-29T17:19:16.485Z,33.92
2022-11-29T17:21:43.106Z,32.10
2022-11-29T17:24:12.179Z,33.53
2022-11-29T17:26:38.989Z,33.47
2022-11-29T17:29:05.614Z,33.97
2022-11-29T17:31:32.421Z,33.13
2022-11-29T17:34:00.642Z,33.47
2022-11-29T17:36:27.601Z,33.38
2022-11-29T17:38:54.353Z,34.28
2022-11-29T17:41:23.543Z,34.22
2022-11-29T17:43:51.318Z,34.30
2022-11-29T17:46:32.105Z,32.65
2022-11-29T17:48:59.893Z,32.72
2022-11-29T17:51:51.059Z,32.38
2022-11-29T17:54:13.322Z,32.72
2022-11-29T17:56:39.809Z,31.60
2022-11-29T17:59:06.339Z,31.50
2022-11-29T18:01:35.622Z,32.05
2022-11-29T18:04:04.832Z,32.10
2022-11-29T18:06:35.684Z,33.78
2022-11-29T18:09:03.788Z,32.15
2022-11-29T18:11:46.800Z,35.35
2022-11-29T18:14:19.758Z,37.00
2022-11-29T18:19:16.370Z,34.13
2022-11-29T18:21:43.419Z,34.83
2022-11-29T18:24:10.093Z,36.35
2022-11-29T18:26:38.212Z,35.25
2022-11-29T18:29:06.361Z,36.85
2022-11-29T18:31:35.146Z,35.15
2022-11-29T18:34:03.483Z,34.88
2022-11-29T18:36:33.198Z,33.83
2022-11-29T18:39:02.285Z,34.63
2022-11-29T18:41:30.223Z,36.72
2022-11-29T18:44:11.361Z,34.88
2022-11-29T18:46:40.344Z,38.07
2022-11-29T18:49:08.741Z,34.03
2022-11-29T18:51:36.974Z,34.60
2022-11-29T18:54:04.137Z,37.40
2022-11-29T18:56:32.755Z,37.78
2022-11-29T18:59:01.087Z,34.65
2022-11-29T19:01:29.962Z,36.22
2022-11-29T19:03:59.449Z,34.33
2022-11-29T19:06:32.831Z,35.72
2022-11-29T19:09:05.189Z,37.08
2022-11-29T19:11:32.951Z,36.80
2022-11-29T19:14:03.151Z,38.00
2022-11-29T19:16:32.298Z,36.95
2022-11-29T19:19:00.641Z,37.97
2022-11-29T19:21:29.655Z,39.97
2022-11-29T19:23:58.395Z,36.10
2022-11-29T19:26:27.485Z,37.03
2022-11-29T19:28:54.671Z,36.72
2022-11-29T19:31:24.826Z,35.60
2022-11-29T19:33:52.651Z,37.88
2022-11-29T19:36:28.602Z,35.20
2022-11-29T19:38:56.118Z,35.30
2022-11-29T19:41:25.821Z,37.38
2022-11-29T19:43:52.442Z,36.42
2022-11-29T19:46:21.746Z,37.63
2022-11-29T19:48:49.042Z,35.75
2022-11-29T19:51:18.909Z,36.10
2022-11-29T19:53:46.915Z,36.47
2022-11-29T19:56:17.363Z,36.53
2022-11-29T19:58:44.377Z,38.17
2022-11-29T20:01:17.347Z,38.28
2022-11-29T20:03:45.076Z,38.35
2022-11-29T20:06:13.470Z,35.80
2022-11-29T20:08:40.452Z,35.65
2022-11-29T20:11:18.997Z,35.97
2022-11-29T20:13:47.751Z,36.25
2022-11-29T20:16:18.139Z,35.08
2022-11-29T20:18:50.647Z,36.00
2022-11-29T20:21:22.042Z,36.70
2022-11-29T20:23:48.943Z,35.30
2022-11-29T20:26:18.290Z,36.83
2022-11-29T20:28:46.295Z,37.30
2022-11-29T20:31:21.307Z,36.85
2022-11-29T20:33:48.838Z,35.22
2022-11-29T20:36:39.943Z,36.85
2022-11-29T20:39:36.381Z,36.30
2022-11-29T20:42:11.910Z,35.72
2022-11-29T20:44:46.180Z,36.55
2022-11-29T20:47:24.378Z,37.10
2022-11-29T20:49:51.325Z,37.63
2022-11-29T20:52:36.537Z,38.90
2022-11-29T20:55:04.569Z,38.03
2022-11-29T20:57:31.119Z,38.25
2022-11-29T20:59:57.627Z,37.50
2022-11-29T21:02:24.765Z,38.58
2022-11-29T21:04:51.537Z,39.10
2022-11-29T21:07:18.217Z,39.05
2022-11-29T21:09:45.148Z,38.58
2022-11-29T21:12:12.259Z,40.20
2022-11-29T21:14:38.998Z,38.83
2022-11-29T21:17:05.799Z,38.05
2022-11-29T21:19:32.488Z,39.45
2022-11-29T21:22:14.464Z,39.05
2022-11-29T21:25:15.749Z,39.25
2022-11-29T21:27:42.506Z,40.60
2022-11-29T21:30:21.114Z,38.97
2022-11-29T21:32:48.149Z,40.92
2022-11-29T21:35:15.064Z,40.08
2022-11-29T21:37:42.912Z,39.92
2022-11-29T21:40:10.919Z,40.10
2022-11-29T21:42:37.961Z,40.65
2022-11-29T21:45:08.233Z,42.58
2022-11-29T21:47:39.879Z,41.05
2022-11-29T21:50:07.147Z,43.78
2022-11-29T21:52:33.747Z,44.42
2022-11-29T21:55:00.235Z,43.22
2022-11-29T21:57:26.737Z,45.05
2022-11-29T21:59:53.681Z,46.28
2022-11-29T22:02:20.533Z,44.33
2022-11-29T22:04:47.298Z,45.55
2022-11-29T22:07:13.896Z,44.00
2022-11-29T22:09:40.418Z,45.33
2022-11-29T22:12:31.795Z,44.88
2022-11-29T22:14:53.462Z,45.22
2022-11-29T22:17:19.919Z,44.38
2022-11-29T22:19:46.444Z,44.97
2022-11-29T22:22:13.173Z,45.33
2022-11-29T22:24:39.626Z,46.97
2022-11-29T22:27:06.332Z,45.20
2022-11-29T22:29:32.925Z,44.85
2022-11-29T22:32:01.031Z,45.22
2022-11-29T22:34:28.077Z,45.45
2022-11-29T22:36:54.822Z,45.15
2022-11-29T22:39:22.530Z,44.05
2022-11-29T22:41:53.845Z,44.33
2022-11-29T22:44:21.507Z,43.08
2022-11-29T22:46:48.116Z,44.58
2022-11-29T22:49:14.761Z,44.00
2022-11-29T22:51:41.308Z,44.88
2022-11-29T22:54:10.335Z,42.88
2022-11-29T22:56:39.230Z,43.15
2022-11-29T22:59:06.016Z,42.13
2022-11-29T23:01:34.746Z,41.78
2022-11-29T23:04:04.056Z,41.70
2022-11-29T23:06:36.777Z,42.10
2022-11-29T23:09:11.900Z,42.03
2022-11-29T23:11:38.754Z,41.78
2022-11-29T23:14:05.223Z,43.25
2022-11-29T23:16:32.803Z,40.95
2022-11-29T23:19:00.299Z,41.63
2022-11-29T23:21:29.882Z,42.25
2022-11-29T23:23:57.210Z,40.70
2022-11-29T23:26:37.263Z,40.22
2022-11-29T23:29:05.454Z,39.85
2022-11-29T23:31:32.687Z,39.25
2022-11-29T23:33:59.179Z,39.22
2022-11-29T23:36:25.849Z,40.50
2022-11-29T23:38:52.455Z,38.28
2022-11-29T23:41:19.274Z,37.70
2022-11-29T23:43:45.938Z,38.45
2022-11-29T23:46:16.309Z,37.00
2022-11-29T23:48:43.875Z,36.67
2022-11-29T23:51:11.081Z,36.20
2022-11-29T23:53:37.806Z,35.25
2022-11-29T23:56:12.073Z,34.88
2022-11-29T23:58:39.099Z,33.40
